Aérodrome :
LOGIN :

S'inscrire | Disclaimer

   EN    FR    IT 

 










Légende :    VFR   VFR Marginal   IFR   IFR Intensif   IFR Très Intensif
Visi : 
Plafond : 
>= 8 km
>= 3000ft
5 à 8 km
1000 à 3000 ft
1500m à 5 km
500 à 1000 ft
800 à 1500m
200 à 500 ft
< 800m
< 200 ft
Symboles :   Orages  Brouillard  Fortes neiges  Fortes précipitations  Vent > 20 kt
SIGMETs :   Divers  Orages  Givrage  Turbulence  Onde Orograph.  Cendres Volcan.






- Altitude de l'aérodrome : 194 ft


EBCV - Chièvres

DERNIER METAR :
  • 081855Z AUTO VRB02KT 9999 NCD 18/08 Q1022 BLU

METARs EXPIRÉS :
  • 081825Z AUTO 02003KT 9999 NCD 19/07 Q1022 BLU
  • 081819Z AUTO 03003KT 9999 NCD 20/07 Q1022 BLU
  • 081755Z AUTO 03003KT 9999 NCD 22/06 Q1022 BLU
  • 081725Z AUTO 36003KT 9999 +RA NCD 22/07 Q1022 BLU
  • 081655Z AUTO 36003KT 9999 RA NCD 21/09 Q1022 BLU
  • 081625Z AUTO VRB02KT 9999 +RA NCD 23/07 Q1022 BLU

TAF TAF EBCV
Valide du 08 à 19h jusqu'au 09 à 07h UTC


081545Z 0819/0907 VRB03KT 9999 SCT100
PROB40
TEMPO 0903/0907 3000 MIFG BR BY EBWM



MET'MAP, la Météo Aéronautique d'un coup d'oeil ! - Copyright ORBIFLY Décembre 2007 - Disclaimer

ORBIFLY MET'MAP TEAM :

Programmation & Développement : Alexandra Zaïnal
Sur une idée originale de : Baudouin d'Aumeries
Assistance à la programmation : Marc-Olivier Méhu
Soutien technique & logistique : Manuel Goepfert

Contact : metmap@orbifly.com




SOURCES & CREDITS :

   NOAA